sensor_id;sensor_type;location;lat;lon;timestamp;temperature;humidity
21445;DHT22;10883;51.946;20.140;2022-11-20T00:01:12;-3.10;99.90
21445;DHT22;10883;51.946;20.140;2022-11-20T00:03:38;-3.10;99.90
21445;DHT22;10883;51.946;20.140;2022-11-20T00:06:06;-3.10;99.90
21445;DHT22;10883;51.946;20.140;2022-11-20T00:08:33;-3.10;99.90
21445;DHT22;10883;51.946;20.140;2022-11-20T00:11:06;-3.10;99.90
21445;DHT22;10883;51.946;20.140;2022-11-20T00:13:33;-3.10;99.90
21445;DHT22;10883;51.946;20.140;2022-11-20T00:16:00;-3.10;99.90
21445;DHT22;10883;51.946;20.140;2022-11-20T00:18:27;-3.10;99.90
21445;DHT22;10883;51.946;20.140;2022-11-20T00:20:53;-3.10;99.90
21445;DHT22;10883;51.946;20.140;2022-11-20T00:23:19;-3.10;99.90
21445;DHT22;10883;51.946;20.140;2022-11-20T00:25:46;-3.10;99.90
21445;DHT22;10883;51.946;20.140;2022-11-20T00:28:12;-3.20;99.90
21445;DHT22;10883;51.946;20.140;2022-11-20T00:30:38;-3.10;99.90
21445;DHT22;10883;51.946;20.140;2022-11-20T00:33:04;-3.10;99.90
21445;DHT22;10883;51.946;20.140;2022-11-20T00:35:30;-3.10;99.90
21445;DHT22;10883;51.946;20.140;2022-11-20T00:37:55;-3.10;99.90
21445;DHT22;10883;51.946;20.140;2022-11-20T00:40:21;-3.10;99.90
21445;DHT22;10883;51.946;20.140;2022-11-20T00:42:47;-3.10;99.90
21445;DHT22;10883;51.946;20.140;2022-11-20T00:45:13;-3.00;99.90
21445;DHT22;10883;51.946;20.140;2022-11-20T00:47:38;-3.00;99.90
21445;DHT22;10883;51.946;20.140;2022-11-20T00:50:04;-3.10;99.90
21445;DHT22;10883;51.946;20.140;2022-11-20T00:52:30;-3.00;99.90
21445;DHT22;10883;51.946;20.140;2022-11-20T00:54:56;-3.10;99.90
21445;DHT22;10883;51.946;20.140;2022-11-20T00:57:22;-3.10;99.90
21445;DHT22;10883;51.946;20.140;2022-11-20T00:59:47;-3.10;99.90
21445;DHT22;10883;51.946;20.140;2022-11-20T01:02:13;-3.00;99.90
21445;DHT22;10883;51.946;20.140;2022-11-20T01:04:42;-3.10;99.90
21445;DHT22;10883;51.946;20.140;2022-11-20T01:07:07;-3.10;99.90
21445;DHT22;10883;51.946;20.140;2022-11-20T01:09:33;-3.20;99.90
21445;DHT22;10883;51.946;20.140;2022-11-20T01:11:59;-3.30;99.90
21445;DHT22;10883;51.946;20.140;2022-11-20T01:14:25;-3.30;99.90
21445;DHT22;10883;51.946;20.140;2022-11-20T01:16:52;-3.30;99.90
21445;DHT22;10883;51.946;20.140;2022-11-20T01:19:22;-3.40;99.90
21445;DHT22;10883;51.946;20.140;2022-11-20T01:21:50;-3.50;99.90
21445;DHT22;10883;51.946;20.140;2022-11-20T01:24:18;-3.50;99.90
21445;DHT22;10883;51.946;20.140;2022-11-20T01:26:46;-3.60;99.90
21445;DHT22;10883;51.946;20.140;2022-11-20T01:29:16;-3.70;99.90
21445;DHT22;10883;51.946;20.140;2022-11-20T01:31:42;-3.80;99.90
21445;DHT22;10883;51.946;20.140;2022-11-20T01:34:14;-3.70;99.90
21445;DHT22;10883;51.946;20.140;2022-11-20T01:36:41;-3.80;99.90
21445;DHT22;10883;51.946;20.140;2022-11-20T01:39:12;-3.80;99.90
21445;DHT22;10883;51.946;20.140;2022-11-20T01:41:38;-3.80;99.90
21445;DHT22;10883;51.946;20.140;2022-11-20T01:44:47;-3.80;99.90
21445;DHT22;10883;51.946;20.140;2022-11-20T01:47:17;-3.80;99.90
21445;DHT22;10883;51.946;20.140;2022-11-20T01:49:50;-3.80;99.90
21445;DHT22;10883;51.946;20.140;2022-11-20T01:52:21;-3.80;99.90
21445;DHT22;10883;51.946;20.140;2022-11-20T01:55:05;-3.80;99.90
21445;DHT22;10883;51.946;20.140;2022-11-20T01:57:33;-3.90;99.90
21445;DHT22;10883;51.946;20.140;2022-11-20T02:00:07;-3.90;99.90
21445;DHT22;10883;51.946;20.140;2022-11-20T02:02:34;-3.90;99.90
21445;DHT22;10883;51.946;20.140;2022-11-20T02:05:09;-3.90;99.90
21445;DHT22;10883;51.946;20.140;2022-11-20T02:07:37;-3.90;99.90
21445;DHT22;10883;51.946;20.140;2022-11-20T02:10:04;-3.90;99.90
21445;DHT22;10883;51.946;20.140;2022-11-20T02:12:30;-4.00;99.90
21445;DHT22;10883;51.946;20.140;2022-11-20T02:15:14;-4.00;99.90
21445;DHT22;10883;51.946;20.140;2022-11-20T02:17:40;-4.10;99.90
21445;DHT22;10883;51.946;20.140;2022-11-20T02:20:06;-4.20;99.90
21445;DHT22;10883;51.946;20.140;2022-11-20T02:22:48;-4.30;99.90
21445;DHT22;10883;51.946;20.140;2022-11-20T02:25:17;-4.40;99.90
21445;DHT22;10883;51.946;20.140;2022-11-20T02:27:43;-4.50;99.90
21445;DHT22;10883;51.946;20.140;2022-11-20T02:30:10;-4.60;99.90
21445;DHT22;10883;51.946;20.140;2022-11-20T02:32:37;-4.60;99.90
21445;DHT22;10883;51.946;20.140;2022-11-20T02:35:55;-4.70;99.90
21445;DHT22;10883;51.946;20.140;2022-11-20T02:37:59;-4.80;99.90
21445;DHT22;10883;51.946;20.140;2022-11-20T02:40:26;-4.80;99.90
21445;DHT22;10883;51.946;20.140;2022-11-20T02:42:52;-4.80;99.90
21445;DHT22;10883;51.946;20.140;2022-11-20T02:45:18;-4.90;99.90
21445;DHT22;10883;51.946;20.140;2022-11-20T02:47:44;-5.00;99.90
21445;DHT22;10883;51.946;20.140;2022-11-20T02:50:11;-4.90;99.90
21445;DHT22;10883;51.946;20.140;2022-11-20T02:52:37;-5.00;99.90
21445;DHT22;10883;51.946;20.140;2022-11-20T02:55:03;-5.00;99.90
21445;DHT22;10883;51.946;20.140;2022-11-20T02:57:29;-5.00;99.90
21445;DHT22;10883;51.946;20.140;2022-11-20T02:59:55;-5.00;99.90
21445;DHT22;10883;51.946;20.140;2022-11-20T03:02:21;-5.00;99.90
21445;DHT22;10883;51.946;20.140;2022-11-20T03:04:46;-5.10;99.90
21445;DHT22;10883;51.946;20.140;2022-11-20T03:07:12;-5.10;99.90
21445;DHT22;10883;51.946;20.140;2022-11-20T03:09:38;-5.10;99.90
21445;DHT22;10883;51.946;20.140;2022-11-20T03:12:04;-5.10;99.90
21445;DHT22;10883;51.946;20.140;2022-11-20T03:14:30;-5.20;99.90
21445;DHT22;10883;51.946;20.140;2022-11-20T03:16:56;-5.20;99.90
21445;DHT22;10883;51.946;20.140;2022-11-20T03:19:23;-5.20;99.90
21445;DHT22;10883;51.946;20.140;2022-11-20T03:21:49;-5.20;99.90
21445;DHT22;10883;51.946;20.140;2022-11-20T03:24:14;-5.20;99.90
21445;DHT22;10883;51.946;20.140;2022-11-20T03:26:41;-5.20;99.90
21445;DHT22;10883;51.946;20.140;2022-11-20T03:29:07;-5.30;99.90
21445;DHT22;10883;51.946;20.140;2022-11-20T03:31:38;-5.30;99.90
21445;DHT22;10883;51.946;20.140;2022-11-20T03:34:06;-5.30;99.90
21445;DHT22;10883;51.946;20.140;2022-11-20T03:36:33;-5.20;99.90
21445;DHT22;10883;51.946;20.140;2022-11-20T03:38:58;-5.30;99.90
21445;DHT22;10883;51.946;20.140;2022-11-20T03:41:26;-5.30;99.90
21445;DHT22;10883;51.946;20.140;2022-11-20T03:43:57;-5.30;99.90
21445;DHT22;10883;51.946;20.140;2022-11-20T03:46:23;-5.30;99.90
21445;DHT22;10883;51.946;20.140;2022-11-20T03:48:50;-5.30;99.90
21445;DHT22;10883;51.946;20.140;2022-11-20T03:53:47;-5.30;99.90
21445;DHT22;10883;51.946;20.140;2022-11-20T03:56:15;-5.20;99.90
21445;DHT22;10883;51.946;20.140;2022-11-20T03:58:42;-5.20;99.90
21445;DHT22;10883;51.946;20.140;2022-11-20T04:01:17;-5.20;99.90
21445;DHT22;10883;51.946;20.140;2022-11-20T04:03:44;-5.30;99.90
21445;DHT22;10883;51.946;20.140;2022-11-20T04:06:18;-5.20;99.90
21445;DHT22;10883;51.946;20.140;2022-11-20T04:08:45;-5.20;99.90
21445;DHT22;10883;51.946;20.140;2022-11-20T04:13:39;-5.20;99.90
21445;DHT22;10883;51.946;20.140;2022-11-20T04:16:06;-5.20;99.90
21445;DHT22;10883;51.946;20.140;2022-11-20T04:18:33;-5.10;99.90
21445;DHT22;10883;51.946;20.140;2022-11-20T04:20:59;-5.10;99.90
21445;DHT22;10883;51.946;20.140;2022-11-20T04:23:26;-5.10;99.90
21445;DHT22;10883;51.946;20.140;2022-11-20T04:25:53;-5.20;99.90
21445;DHT22;10883;51.946;20.140;2022-11-20T04:28:19;-5.20;99.90
21445;DHT22;10883;51.946;20.140;2022-11-20T04:30:45;-5.20;99.90
21445;DHT22;10883;51.946;20.140;2022-11-20T04:33:11;-5.30;99.90
21445;DHT22;10883;51.946;20.140;2022-11-20T04:35:37;-5.30;99.90
21445;DHT22;10883;51.946;20.140;2022-11-20T04:38:04;-5.30;99.90
21445;DHT22;10883;51.946;20.140;2022-11-20T04:40:30;-5.40;99.90
21445;DHT22;10883;51.946;20.140;2022-11-20T04:42:56;-5.30;99.90
21445;DHT22;10883;51.946;20.140;2022-11-20T04:45:23;-5.40;99.90
21445;DHT22;10883;51.946;20.140;2022-11-20T04:47:49;-5.40;99.90
21445;DHT22;10883;51.946;20.140;2022-11-20T04:50:15;-5.40;99.90
21445;DHT22;10883;51.946;20.140;2022-11-20T04:52:41;-5.50;99.90
21445;DHT22;10883;51.946;20.140;2022-11-20T04:55:07;-5.50;99.90
21445;DHT22;10883;51.946;20.140;2022-11-20T04:57:32;-5.60;99.90
21445;DHT22;10883;51.946;20.140;2022-11-20T04:59:58;-5.60;99.90
21445;DHT22;10883;51.946;20.140;2022-11-20T05:02:24;-5.60;99.90
21445;DHT22;10883;51.946;20.140;2022-11-20T05:04:50;-5.60;99.90
21445;DHT22;10883;51.946;20.140;2022-11-20T05:07:16;-5.70;99.90
21445;DHT22;10883;51.946;20.140;2022-11-20T05:09:42;-5.70;99.90
21445;DHT22;10883;51.946;20.140;2022-11-20T05:12:08;-5.70;99.90
21445;DHT22;10883;51.946;20.140;2022-11-20T05:14:34;-5.60;99.90
21445;DHT22;10883;51.946;20.140;2022-11-20T05:17:00;-5.60;99.90
21445;DHT22;10883;51.946;20.140;2022-11-20T05:19:26;-5.60;99.90
21445;DHT22;10883;51.946;20.140;2022-11-20T05:21:52;-5.60;99.90
21445;DHT22;10883;51.946;20.140;2022-11-20T05:24:18;-5.50;99.90
21445;DHT22;10883;51.946;20.140;2022-11-20T05:26:43;-5.40;99.90
21445;DHT22;10883;51.946;20.140;2022-11-20T05:29:12;-5.40;99.90
21445;DHT22;10883;51.946;20.140;2022-11-20T05:31:40;-5.40;99.90
21445;DHT22;10883;51.946;20.140;2022-11-20T05:34:06;-5.40;99.90
21445;DHT22;10883;51.946;20.140;2022-11-20T05:36:32;-5.40;99.90
21445;DHT22;10883;51.946;20.140;2022-11-20T05:38:58;-5.40;99.90
21445;DHT22;10883;51.946;20.140;2022-11-20T05:41:24;-5.50;99.90
21445;DHT22;10883;51.946;20.140;2022-11-20T05:43:50;-5.50;99.90
21445;DHT22;10883;51.946;20.140;2022-11-20T05:46:18;-5.60;99.90
21445;DHT22;10883;51.946;20.140;2022-11-20T05:48:45;-5.60;99.90
21445;DHT22;10883;51.946;20.140;2022-11-20T05:51:13;-5.60;99.90
21445;DHT22;10883;51.946;20.140;2022-11-20T05:53:39;-5.50;99.90
21445;DHT22;10883;51.946;20.140;2022-11-20T05:56:14;-5.50;99.90
21445;DHT22;10883;51.946;20.140;2022-11-20T05:58:40;-5.50;99.90
21445;DHT22;10883;51.946;20.140;2022-11-20T06:01:07;-5.50;99.90
21445;DHT22;10883;51.946;20.140;2022-11-20T06:03:33;-5.50;99.90
21445;DHT22;10883;51.946;20.140;2022-11-20T06:06:00;-5.50;99.90
21445;DHT22;10883;51.946;20.140;2022-11-20T06:08:26;-5.50;99.90
21445;DHT22;10883;51.946;20.140;2022-11-20T06:10:52;-5.50;99.90
21445;DHT22;10883;51.946;20.140;2022-11-20T06:13:17;-5.60;99.90
21445;DHT22;10883;51.946;20.140;2022-11-20T06:15:51;-5.60;99.90
21445;DHT22;10883;51.946;20.140;2022-11-20T06:18:18;-5.60;99.90
21445;DHT22;10883;51.946;20.140;2022-11-20T06:20:44;-5.60;99.90
21445;DHT22;10883;51.946;20.140;2022-11-20T06:23:09;-5.60;99.90
21445;DHT22;10883;51.946;20.140;2022-11-20T06:25:40;-5.70;99.90
21445;DHT22;10883;51.946;20.140;2022-11-20T06:28:06;-5.60;99.90
21445;DHT22;10883;51.946;20.140;2022-11-20T06:30:32;-5.60;99.90
21445;DHT22;10883;51.946;20.140;2022-11-20T06:32:58;-5.60;99.90
21445;DHT22;10883;51.946;20.140;2022-11-20T06:35:24;-5.60;99.90
21445;DHT22;10883;51.946;20.140;2022-11-20T06:37:50;-5.50;99.90
21445;DHT22;10883;51.946;20.140;2022-11-20T06:40:15;-5.50;99.90
21445;DHT22;10883;51.946;20.140;2022-11-20T06:42:41;-5.50;99.90
21445;DHT22;10883;51.946;20.140;2022-11-20T06:45:08;-5.40;99.90
21445;DHT22;10883;51.946;20.140;2022-11-20T06:47:33;-5.30;99.90
21445;DHT22;10883;51.946;20.140;2022-11-20T06:49:59;-5.20;99.90
21445;DHT22;10883;51.946;20.140;2022-11-20T06:52:25;-4.80;99.90
21445;DHT22;10883;51.946;20.140;2022-11-20T06:54:51;-4.30;99.90
21445;DHT22;10883;51.946;20.140;2022-11-20T06:57:17;-4.00;99.90
21445;DHT22;10883;51.946;20.140;2022-11-20T06:59:43;-3.90;99.90
21445;DHT22;10883;51.946;20.140;2022-11-20T07:02:12;-3.70;99.90
21445;DHT22;10883;51.946;20.140;2022-11-20T07:04:38;-3.00;99.90
21445;DHT22;10883;51.946;20.140;2022-11-20T07:07:04;-2.30;99.90
21445;DHT22;10883;51.946;20.140;2022-11-20T07:09:32;-1.90;99.90
21445;DHT22;10883;51.946;20.140;2022-11-20T07:11:59;-2.10;99.90
21445;DHT22;10883;51.946;20.140;2022-11-20T07:14:24;-1.90;99.90
21445;DHT22;10883;51.946;20.140;2022-11-20T07:16:50;-1.30;99.90
21445;DHT22;10883;51.946;20.140;2022-11-20T07:19:16;-0.80;99.90
21445;DHT22;10883;51.946;20.140;2022-11-20T07:21:42;-0.80;99.90
21445;DHT22;10883;51.946;20.140;2022-11-20T07:24:08;-1.40;99.90
21445;DHT22;10883;51.946;20.140;2022-11-20T07:26:33;-2.00;99.90
21445;DHT22;10883;51.946;20.140;2022-11-20T07:28:59;-1.40;99.90
21445;DHT22;10883;51.946;20.140;2022-11-20T07:31:25;0.10;99.90
21445;DHT22;10883;51.946;20.140;2022-11-20T07:33:50;1.20;99.90
21445;DHT22;10883;51.946;20.140;2022-11-20T07:36:16;2.50;99.90
21445;DHT22;10883;51.946;20.140;2022-11-20T07:38:42;3.40;99.90
21445;DHT22;10883;51.946;20.140;2022-11-20T07:41:08;4.60;99.90
21445;DHT22;10883;51.946;20.140;2022-11-20T07:43:35;5.30;99.90
21445;DHT22;10883;51.946;20.140;2022-11-20T07:46:00;5.50;99.90
21445;DHT22;10883;51.946;20.140;2022-11-20T07:48:27;5.60;99.90
21445;DHT22;10883;51.946;20.140;2022-11-20T07:50:56;6.10;98.10
21445;DHT22;10883;51.946;20.140;2022-11-20T17:16:42;-4.60;99.90
21445;DHT22;10883;51.946;20.140;2022-11-20T17:19:08;-5.00;99.90
21445;DHT22;10883;51.946;20.140;2022-11-20T17:21:34;-4.90;99.90
21445;DHT22;10883;51.946;20.140;2022-11-20T17:24:02;-4.80;99.90
21445;DHT22;10883;51.946;20.140;2022-11-20T17:26:28;-4.80;99.90
21445;DHT22;10883;51.946;20.140;2022-11-20T17:28:56;-4.50;99.90
21445;DHT22;10883;51.946;20.140;2022-11-20T17:31:23;-4.70;99.90
21445;DHT22;10883;51.946;20.140;2022-11-20T17:33:49;-4.80;99.90
21445;DHT22;10883;51.946;20.140;2022-11-20T17:36:16;-4.90;99.90
21445;DHT22;10883;51.946;20.140;2022-11-20T17:38:42;-5.00;99.90
21445;DHT22;10883;51.946;20.140;2022-11-20T17:41:17;-5.10;99.90
21445;DHT22;10883;51.946;20.140;2022-11-20T17:43:43;-5.20;99.90
21445;DHT22;10883;51.946;20.140;2022-11-20T17:46:10;-5.20;99.90
21445;DHT22;10883;51.946;20.140;2022-11-20T17:48:36;-5.20;99.90
21445;DHT22;10883;51.946;20.140;2022-11-20T17:51:05;-5.30;99.90
21445;DHT22;10883;51.946;20.140;2022-11-20T17:53:36;-5.30;99.90
21445;DHT22;10883;51.946;20.140;2022-11-20T17:56:02;-5.30;99.90
21445;DHT22;10883;51.946;20.140;2022-11-20T17:58:49;-5.10;99.90
21445;DHT22;10883;51.946;20.140;2022-11-20T18:01:19;-5.10;99.90
21445;DHT22;10883;51.946;20.140;2022-11-20T18:03:48;-5.10;99.90
21445;DHT22;10883;51.946;20.140;2022-11-20T18:06:20;-5.20;99.90
21445;DHT22;10883;51.946;20.140;2022-11-20T18:08:49;-5.30;99.90
21445;DHT22;10883;51.946;20.140;2022-11-20T18:11:20;-5.40;99.90
21445;DHT22;10883;51.946;20.140;2022-11-20T18:13:55;-5.40;99.90
21445;DHT22;10883;51.946;20.140;2022-11-20T18:16:53;-5.50;99.90
21445;DHT22;10883;51.946;20.140;2022-11-20T18:19:22;-5.30;99.90
21445;DHT22;10883;51.946;20.140;2022-11-20T18:21:49;-4.80;99.90
21445;DHT22;10883;51.946;20.140;2022-11-20T18:24:16;-4.80;99.90
21445;DHT22;10883;51.946;20.140;2022-11-20T18:26:42;-4.90;99.90
21445;DHT22;10883;51.946;20.140;2022-11-20T18:29:08;-5.10;99.90
21445;DHT22;10883;51.946;20.140;2022-11-20T18:31:34;-5.10;99.90
21445;DHT22;10883;51.946;20.140;2022-11-20T18:34:00;-5.00;99.90
21445;DHT22;10883;51.946;20.140;2022-11-20T18:36:28;-4.80;99.90
21445;DHT22;10883;51.946;20.140;2022-11-20T18:38:56;-4.90;99.90
21445;DHT22;10883;51.946;20.140;2022-11-20T18:41:25;-4.90;99.90
21445;DHT22;10883;51.946;20.140;2022-11-20T18:44:21;-4.90;99.90
21445;DHT22;10883;51.946;20.140;2022-11-20T18:47:09;-4.90;99.90
21445;DHT22;10883;51.946;20.140;2022-11-20T18:49:35;-4.70;99.90
21445;DHT22;10883;51.946;20.140;2022-11-20T18:52:01;-4.50;99.90
21445;DHT22;10883;51.946;20.140;2022-11-20T18:54:27;-4.30;99.90
21445;DHT22;10883;51.946;20.140;2022-11-20T18:56:53;-4.20;99.90
21445;DHT22;10883;51.946;20.140;2022-11-20T18:59:19;-4.10;99.90
21445;DHT22;10883;51.946;20.140;2022-11-20T19:01:47;-4.20;99.90
21445;DHT22;10883;51.946;20.140;2022-11-20T19:04:14;-4.20;99.90
21445;DHT22;10883;51.946;20.140;2022-11-20T19:06:41;-4.10;99.90
21445;DHT22;10883;51.946;20.140;2022-11-20T19:09:10;-4.00;99.90
21445;DHT22;10883;51.946;20.140;2022-11-20T19:11:37;-4.00;99.90
21445;DHT22;10883;51.946;20.140;2022-11-20T19:14:04;-4.00;99.90
21445;DHT22;10883;51.946;20.140;2022-11-20T19:16:30;-3.90;99.90
21445;DHT22;10883;51.946;20.140;2022-11-20T19:18:59;-3.80;99.90
21445;DHT22;10883;51.946;20.140;2022-11-20T19:21:25;-3.90;99.90
21445;DHT22;10883;51.946;20.140;2022-11-20T19:23:55;-4.00;99.90
21445;DHT22;10883;51.946;20.140;2022-11-20T19:26:22;-4.00;99.90
21445;DHT22;10883;51.946;20.140;2022-11-20T19:28:48;-3.90;99.90
21445;DHT22;10883;51.946;20.140;2022-11-20T19:31:19;-4.00;99.90
21445;DHT22;10883;51.946;20.140;2022-11-20T19:33:46;-4.00;99.90
21445;DHT22;10883;51.946;20.140;2022-11-20T19:38:38;-4.20;99.90
21445;DHT22;10883;51.946;20.140;2022-11-20T19:41:06;-4.10;99.90
21445;DHT22;10883;51.946;20.140;2022-11-20T19:43:33;-4.10;99.90
21445;DHT22;10883;51.946;20.140;2022-11-20T19:45:59;-4.10;99.90
21445;DHT22;10883;51.946;20.140;2022-11-20T19:48:25;-4.10;99.90
21445;DHT22;10883;51.946;20.140;2022-11-20T19:50:50;-4.20;99.90
21445;DHT22;10883;51.946;20.140;2022-11-20T19:53:16;-4.30;99.90
21445;DHT22;10883;51.946;20.140;2022-11-20T19:55:57;-4.20;99.90
21445;DHT22;10883;51.946;20.140;2022-11-20T19:58:23;-4.20;99.90
21445;DHT22;10883;51.946;20.140;2022-11-20T20:00:49;-4.20;99.90
21445;DHT22;10883;51.946;20.140;2022-11-20T20:03:15;-4.20;99.90
21445;DHT22;10883;51.946;20.140;2022-11-20T20:05:40;-4.30;99.90
21445;DHT22;10883;51.946;20.140;2022-11-20T20:08:06;-4.30;99.90
21445;DHT22;10883;51.946;20.140;2022-11-20T20:10:32;-4.50;99.90
21445;DHT22;10883;51.946;20.140;2022-11-20T20:12:58;-4.50;99.90
21445;DHT22;10883;51.946;20.140;2022-11-20T20:15:24;-4.70;99.90
21445;DHT22;10883;51.946;20.140;2022-11-20T20:17:53;-4.90;99.90
21445;DHT22;10883;51.946;20.140;2022-11-20T20:20:20;-5.00;99.90
21445;DHT22;10883;51.946;20.140;2022-11-20T20:22:46;-5.20;99.90
21445;DHT22;10883;51.946;20.140;2022-11-20T20:25:12;-5.20;99.90
21445;DHT22;10883;51.946;20.140;2022-11-20T20:27:39;-5.20;99.90
21445;DHT22;10883;51.946;20.140;2022-11-20T20:30:06;-5.10;99.90
21445;DHT22;10883;51.946;20.140;2022-11-20T20:32:32;-5.00;99.90
21445;DHT22;10883;51.946;20.140;2022-11-20T20:34:58;-5.00;99.90
21445;DHT22;10883;51.946;20.140;2022-11-20T20:37:25;-4.80;99.90
21445;DHT22;10883;51.946;20.140;2022-11-20T20:39:50;-4.40;99.90
21445;DHT22;10883;51.946;20.140;2022-11-20T20:42:16;-4.10;99.90
21445;DHT22;10883;51.946;20.140;2022-11-20T20:44:42;-4.00;99.90
21445;DHT22;10883;51.946;20.140;2022-11-20T20:47:30;-3.90;99.90
21445;DHT22;10883;51.946;20.140;2022-11-20T20:49:56;-3.80;99.90
21445;DHT22;10883;51.946;20.140;2022-11-20T20:52:23;-3.80;99.90
21445;DHT22;10883;51.946;20.140;2022-11-20T20:54:52;-3.80;99.90
21445;DHT22;10883;51.946;20.140;2022-11-20T20:57:18;-3.80;99.90
21445;DHT22;10883;51.946;20.140;2022-11-20T20:59:44;-3.90;99.90
21445;DHT22;10883;51.946;20.140;2022-11-20T21:02:10;-4.10;99.90
21445;DHT22;10883;51.946;20.140;2022-11-20T21:04:36;-3.90;99.90
21445;DHT22;10883;51.946;20.140;2022-11-20T21:07:02;-3.80;99.90
21445;DHT22;10883;51.946;20.140;2022-11-20T21:09:28;-3.80;99.90
21445;DHT22;10883;51.946;20.140;2022-11-20T21:11:53;-3.80;99.90
21445;DHT22;10883;51.946;20.140;2022-11-20T21:14:19;-3.80;99.90
21445;DHT22;10883;51.946;20.140;2022-11-20T21:16:45;-3.90;99.90
21445;DHT22;10883;51.946;20.140;2022-11-20T21:19:11;-3.90;99.90
21445;DHT22;10883;51.946;20.140;2022-11-20T21:21:37;-3.80;99.90
21445;DHT22;10883;51.946;20.140;2022-11-20T21:24:21;-3.80;99.90
21445;DHT22;10883;51.946;20.140;2022-11-20T21:26:47;-3.90;99.90
21445;DHT22;10883;51.946;20.140;2022-11-20T21:29:20;-4.00;99.90
21445;DHT22;10883;51.946;20.140;2022-11-20T21:31:46;-4.10;99.90
21445;DHT22;10883;51.946;20.140;2022-11-20T21:34:13;-4.20;99.90
21445;DHT22;10883;51.946;20.140;2022-11-20T21:36:39;-4.20;99.90
21445;DHT22;10883;51.946;20.140;2022-11-20T21:39:05;-4.20;99.90
21445;DHT22;10883;51.946;20.140;2022-11-20T21:41:32;-4.10;99.90
21445;DHT22;10883;51.946;20.140;2022-11-20T21:44:00;-4.00;99.90
21445;DHT22;10883;51.946;20.140;2022-11-20T21:46:29;-4.00;99.90
21445;DHT22;10883;51.946;20.140;2022-11-20T21:48:55;-4.00;99.90
21445;DHT22;10883;51.946;20.140;2022-11-20T21:51:23;-4.00;99.90
21445;DHT22;10883;51.946;20.140;2022-11-20T21:53:51;-4.00;99.90
21445;DHT22;10883;51.946;20.140;2022-11-20T21:56:19;-4.00;99.90
21445;DHT22;10883;51.946;20.140;2022-11-20T21:58:45;-4.00;99.90
21445;DHT22;10883;51.946;20.140;2022-11-20T22:01:13;-4.00;99.90
21445;DHT22;10883;51.946;20.140;2022-11-20T22:03:40;-4.10;99.90
21445;DHT22;10883;51.946;20.140;2022-11-20T22:06:08;-4.10;99.90
21445;DHT22;10883;51.946;20.140;2022-11-20T22:08:35;-4.10;99.90
21445;DHT22;10883;51.946;20.140;2022-11-20T22:11:05;-4.20;99.90
21445;DHT22;10883;51.946;20.140;2022-11-20T22:13:31;-4.20;99.90
21445;DHT22;10883;51.946;20.140;2022-11-20T22:16:16;-4.20;99.90
21445;DHT22;10883;51.946;20.140;2022-11-20T22:18:47;-4.30;99.90
21445;DHT22;10883;51.946;20.140;2022-11-20T22:21:14;-4.30;99.90
21445;DHT22;10883;51.946;20.140;2022-11-20T22:23:40;-4.40;99.90
21445;DHT22;10883;51.946;20.140;2022-11-20T22:26:14;-4.50;99.90
21445;DHT22;10883;51.946;20.140;2022-11-20T22:28:41;-4.50;99.90
21445;DHT22;10883;51.946;20.140;2022-11-20T22:31:09;-4.50;99.90
21445;DHT22;10883;51.946;20.140;2022-11-20T22:33:36;-4.50;99.90
21445;DHT22;10883;51.946;20.140;2022-11-20T22:36:07;-4.50;99.90
21445;DHT22;10883;51.946;20.140;2022-11-20T22:38:34;-4.40;99.90
21445;DHT22;10883;51.946;20.140;2022-11-20T22:41:11;-4.40;99.90
21445;DHT22;10883;51.946;20.140;2022-11-20T22:43:39;-4.30;99.90
21445;DHT22;10883;51.946;20.140;2022-11-20T22:46:10;-4.10;99.90
21445;DHT22;10883;51.946;20.140;2022-11-20T22:48:40;-4.00;99.90
21445;DHT22;10883;51.946;20.140;2022-11-20T22:51:08;-3.80;99.90
21445;DHT22;10883;51.946;20.140;2022-11-20T22:53:35;-3.70;99.90
21445;DHT22;10883;51.946;20.140;2022-11-20T22:56:01;-3.70;99.90
21445;DHT22;10883;51.946;20.140;2022-11-20T22:58:28;-3.60;99.90
21445;DHT22;10883;51.946;20.140;2022-11-20T23:01:04;-3.50;99.90
21445;DHT22;10883;51.946;20.140;2022-11-20T23:03:29;-3.50;99.90
21445;DHT22;10883;51.946;20.140;2022-11-20T23:05:58;-3.40;99.90
21445;DHT22;10883;51.946;20.140;2022-11-20T23:08:24;-3.40;99.90
21445;DHT22;10883;51.946;20.140;2022-11-20T23:10:50;-3.40;99.90
21445;DHT22;10883;51.946;20.140;2022-11-20T23:13:16;-3.30;99.90
21445;DHT22;10883;51.946;20.140;2022-11-20T23:15:41;-3.40;99.90
21445;DHT22;10883;51.946;20.140;2022-11-20T23:18:07;-3.40;99.90
21445;DHT22;10883;51.946;20.140;2022-11-20T23:20:36;-3.40;99.90
21445;DHT22;10883;51.946;20.140;2022-11-20T23:23:02;-3.40;99.90
21445;DHT22;10883;51.946;20.140;2022-11-20T23:25:28;-3.40;99.90
21445;DHT22;10883;51.946;20.140;2022-11-20T23:27:53;-3.40;99.90
21445;DHT22;10883;51.946;20.140;2022-11-20T23:30:20;-3.30;99.90
21445;DHT22;10883;51.946;20.140;2022-11-20T23:32:46;-3.20;99.90
21445;DHT22;10883;51.946;20.140;2022-11-20T23:35:11;-3.30;99.90
21445;DHT22;10883;51.946;20.140;2022-11-20T23:37:37;-3.20;99.90
21445;DHT22;10883;51.946;20.140;2022-11-20T23:40:03;-3.20;99.90
21445;DHT22;10883;51.946;20.140;2022-11-20T23:42:29;-3.20;99.90
21445;DHT22;10883;51.946;20.140;2022-11-20T23:44:55;-3.20;99.90
21445;DHT22;10883;51.946;20.140;2022-11-20T23:47:21;-3.10;99.90
21445;DHT22;10883;51.946;20.140;2022-11-20T23:49:47;-3.10;99.90
21445;DHT22;10883;51.946;20.140;2022-11-20T23:52:12;-3.10;99.90
21445;DHT22;10883;51.946;20.140;2022-11-20T23:54:38;-3.10;99.90
21445;DHT22;10883;51.946;20.140;2022-11-20T23:57:04;-3.20;99.90
21445;DHT22;10883;51.946;20.140;2022-11-20T23:59:30;-3.30;99.90
